Time;durP1;ratioP1;P1;durP2;ratioP2;P2;SDS_P1;SDS_P2;PMS_P1;PMS_P2;Temp;Humidity;BMP_temperature;BMP_pressure;BME280_temperature;BME280_humidity;BME280_pressure;Samples;Min_cycle;Max_cycle;Signal;HPM_P1;HPM_P2
2022/01/21 00:01:33;;;;;;;9.43;5.30;;;2.20;99.90;;;;;;5029395;28;20026;-79
2022/01/21 00:03:59;;;;;;;7.93;4.82;;;2.30;99.90;;;;;;5024906;28;20033;-79
2022/01/21 00:06:25;;;;;;;9.57;5.40;;;2.30;99.90;;;;;;5027475;28;20036;-79
2022/01/21 00:08:52;;;;;;;10.35;5.38;;;2.20;99.90;;;;;;5025268;28;20025;-79
2022/01/21 00:11:20;;;;;;;10.80;5.43;;;2.20;99.90;;;;;;5022636;28;20060;-79
2022/01/21 00:13:46;;;;;;;11.63;5.03;;;2.10;99.90;;;;;;5027299;28;20029;-79
2022/01/21 00:16:18;;;;;;;9.93;5.30;;;2.10;99.90;;;;;;5016973;28;20018;-79
2022/01/21 00:18:55;;;;;;;9.23;5.20;;;2.20;99.90;;;;;;5030494;28;20102;-79
2022/01/21 00:32:19;;;;;;;7.85;4.95;;;1.90;99.90;;;;;;5028761;28;20461;-79
2022/01/21 00:34:45;;;;;;;9.55;5.93;;;1.90;99.90;;;;;;5028683;28;20029;-79
2022/01/21 00:37:10;;;;;;;8.25;5.32;;;1.90;99.90;;;;;;5031956;28;20494;-79
2022/01/21 00:39:37;;;;;;;12.18;5.95;;;1.80;99.90;;;;;;5031169;28;20033;-79
2022/01/21 00:42:14;;;;;;;11.90;6.45;;;1.90;99.90;;;;;;5032012;28;20501;-79
2022/01/21 00:44:40;;;;;;;11.90;6.75;;;1.70;99.90;;;;;;5036224;28;20032;-79
2022/01/21 00:47:06;;;;;;;14.05;7.38;;;1.80;99.90;;;;;;5020163;28;20136;-79
2022/01/21 00:49:32;;;;;;;14.50;7.80;;;1.80;99.90;;;;;;5029978;28;20112;-79
2022/01/21 00:51:58;;;;;;;13.18;7.28;;;1.80;99.90;;;;;;5029680;28;20574;-79
2022/01/21 00:54:24;;;;;;;14.88;7.88;;;1.80;99.90;;;;;;5029482;28;20525;-79
2022/01/21 00:56:49;;;;;;;17.83;7.85;;;1.80;99.90;;;;;;5032088;28;20086;-79
2022/01/21 00:59:15;;;;;;;13.77;7.10;;;1.90;99.90;;;;;;5032363;28;20101;-79
2022/01/21 01:01:41;;;;;;;13.73;7.05;;;1.80;99.90;;;;;;5032263;28;20104;-79
2022/01/21 01:04:07;;;;;;;16.30;7.78;;;1.70;99.90;;;;;;5032354;28;20033;-79
2022/01/21 01:06:33;;;;;;;17.13;7.80;;;1.80;99.90;;;;;;5031765;28;20052;-79
2022/01/21 01:08:59;;;;;;;13.98;7.30;;;1.80;99.90;;;;;;5033693;28;20506;-79
2022/01/21 01:22:26;;;;;;;14.10;6.67;;;1.60;99.90;;;;;;5028433;28;20040;-79
2022/01/21 01:27:40;;;;;;;17.10;7.82;;;1.60;99.90;;;;;;5026966;28;20048;-79
2022/01/21 01:30:08;;;;;;;14.60;7.00;;;1.60;99.90;;;;;;5030442;28;20026;-79
2022/01/21 01:32:34;;;;;;;14.27;6.78;;;1.40;99.90;;;;;;5032177;28;20026;-79
2022/01/21 01:35:00;;;;;;;15.10;7.13;;;1.50;99.90;;;;;;5035361;28;20104;-79
2022/01/21 01:40:23;;;;;;;14.88;7.35;;;1.50;99.90;;;;;;5033159;28;20048;-79
2022/01/21 01:50:49;;;;;;;17.08;7.63;;;1.30;99.90;;;;;;5027969;28;20032;-79
2022/01/21 01:53:16;;;;;;;11.90;6.57;;;1.30;99.90;;;;;;5029438;28;20021;-79
2022/01/21 01:55:43;;;;;;;13.02;6.63;;;1.30;99.90;;;;;;5029034;28;20021;-79
2022/01/21 01:58:12;;;;;;;13.15;6.97;;;1.30;99.90;;;;;;5033622;28;20026;-79
2022/01/21 02:00:39;;;;;;;14.18;6.95;;;1.30;99.90;;;;;;5028126;28;20080;-78
2022/01/21 02:03:09;;;;;;;17.13;7.82;;;1.30;99.90;;;;;;5022968;28;20037;-79
2022/01/21 02:05:36;;;;;;;15.57;8.35;;;1.30;99.90;;;;;;5025152;28;20036;-79
2022/01/21 02:08:02;;;;;;;17.15;7.20;;;1.20;99.90;;;;;;5029502;28;20105;-79
2022/01/21 02:10:28;;;;;;;14.60;7.50;;;1.30;99.90;;;;;;5035148;28;20104;-79
2022/01/21 02:13:03;;;;;;;16.88;7.85;;;1.30;99.90;;;;;;5028523;28;20483;-79
2022/01/21 02:15:29;;;;;;;18.27;8.18;;;1.20;99.90;;;;;;5025109;28;20037;-79
2022/01/21 02:23:25;;;;;;;14.75;6.82;;;1.10;99.90;;;;;;5032223;28;20036;-79
2022/01/21 02:25:51;;;;;;;15.27;7.30;;;1.10;99.90;;;;;;5040694;28;20033;-79
2022/01/21 02:28:18;;;;;;;15.77;7.32;;;1.20;99.90;;;;;;5032183;28;20072;-79
2022/01/21 02:30:58;;;;;;;16.67;7.07;;;1.10;99.90;;;;;;5028184;28;20025;-79
2022/01/21 02:33:25;;;;;;;16.70;6.63;;;1.10;99.90;;;;;;5028160;28;20065;-79
2022/01/21 02:35:51;;;;;;;12.25;7.18;;;1.10;99.90;;;;;;5022023;28;20029;-79
2022/01/21 02:38:17;;;;;;;15.75;7.13;;;1.10;99.90;;;;;;5030652;28;20017;-79
2022/01/21 02:40:44;;;;;;;15.32;7.75;;;1.20;99.90;;;;;;5013686;28;20486;-79
2022/01/21 02:43:11;;;;;;;13.80;6.55;;;1.10;99.90;;;;;;5021543;28;20104;-79
2022/01/21 02:45:38;;;;;;;12.85;6.28;;;1.10;99.90;;;;;;5021573;28;20053;-79
2022/01/21 02:48:07;;;;;;;13.07;6.43;;;1.00;99.90;;;;;;5034157;28;20045;-79
2022/01/21 02:50:33;;;;;;;12.50;6.20;;;1.00;99.90;;;;;;5027345;28;20104;-79
2022/01/21 02:53:12;;;;;;;14.90;6.25;;;1.00;99.90;;;;;;5029456;28;20172;-79
2022/01/21 02:55:38;;;;;;;9.77;5.72;;;1.00;99.90;;;;;;5026074;28;20033;-79
2022/01/21 02:58:03;;;;;;;10.10;5.93;;;1.00;99.90;;;;;;5019010;28;20029;-79
2022/01/21 03:00:29;;;;;;;10.80;5.28;;;0.90;99.90;;;;;;5026123;28;20029;-79
2022/01/21 03:02:55;;;;;;;11.05;5.15;;;0.90;99.90;;;;;;5030243;28;20149;-79
2022/01/21 03:05:21;;;;;;;10.73;5.10;;;1.00;99.90;;;;;;5029301;28;20410;-79
2022/01/21 03:07:48;;;;;;;8.07;4.90;;;1.00;99.90;;;;;;5029814;28;20104;-79
2022/01/21 03:10:14;;;;;;;11.40;4.88;;;1.00;99.90;;;;;;5018307;28;20040;-79
2022/01/21 03:12:41;;;;;;;9.30;4.50;;;1.00;99.90;;;;;;5030150;28;20068;-79
2022/01/21 03:15:07;;;;;;;8.13;4.60;;;1.00;99.90;;;;;;5032716;28;20025;-79
2022/01/21 03:17:33;;;;;;;9.23;4.45;;;1.00;99.90;;;;;;5027838;28;20030;-79
2022/01/21 03:20:00;;;;;;;10.70;5.45;;;0.90;99.90;;;;;;5029484;28;20025;-79
2022/01/21 03:22:26;;;;;;;10.07;4.90;;;0.90;99.90;;;;;;5031220;28;20162;-79
2022/01/21 03:24:52;;;;;;;8.38;4.60;;;0.80;99.90;;;;;;5022096;28;20486;-79
2022/01/21 03:27:17;;;;;;;8.75;4.70;;;0.90;99.90;;;;;;5023572;28;20109;-79
2022/01/21 03:29:44;;;;;;;8.50;4.80;;;0.90;99.90;;;;;;5023588;28;20498;-79
2022/01/21 03:32:10;;;;;;;7.20;4.57;;;0.90;99.90;;;;;;5019036;28;20100;-79
2022/01/21 03:34:35;;;;;;;7.10;4.65;;;0.90;99.90;;;;;;5030280;28;20570;-79
2022/01/21 03:37:02;;;;;;;11.23;4.85;;;0.90;99.90;;;;;;5025956;28;20026;-79
2022/01/21 03:39:28;;;;;;;11.18;4.68;;;0.80;99.90;;;;;;5032323;28;20052;-79
2022/01/21 03:41:53;;;;;;;8.52;4.43;;;0.90;99.90;;;;;;5026416;28;20017;-79
2022/01/21 03:44:19;;;;;;;13.27;5.68;;;0.90;99.90;;;;;;5030910;28;20064;-79
2022/01/21 03:46:45;;;;;;;10.55;5.57;;;0.80;99.90;;;;;;5029123;28;20049;-79
2022/01/21 03:49:10;;;;;;;7.20;4.32;;;0.80;99.90;;;;;;5019513;28;20450;-79
2022/01/21 03:51:36;;;;;;;8.02;4.32;;;0.80;99.90;;;;;;5027307;28;20020;-79
2022/01/21 03:54:02;;;;;;;8.85;4.47;;;0.70;99.90;;;;;;5028684;28;20403;-79
2022/01/21 03:56:28;;;;;;;9.75;4.57;;;0.70;99.90;;;;;;5027491;28;20487;-79
2022/01/21 03:58:54;;;;;;;8.77;5.05;;;0.80;99.90;;;;;;5028644;28;20091;-79
2022/01/21 04:01:21;;;;;;;9.80;4.95;;;0.80;99.90;;;;;;5030577;28;20037;-79
2022/01/21 04:03:47;;;;;;;10.05;5.82;;;0.80;99.90;;;;;;5033504;28;20031;-79
2022/01/21 04:06:13;;;;;;;8.65;5.30;;;0.80;99.90;;;;;;5028168;28;20405;-79
2022/01/21 04:08:38;;;;;;;9.82;5.03;;;0.90;99.90;;;;;;5027115;28;20025;-79
2022/01/21 04:11:04;;;;;;;14.13;5.60;;;0.90;99.90;;;;;;5017085;28;20083;-79
2022/01/21 04:13:30;;;;;;;10.73;4.82;;;0.90;99.90;;;;;;5029531;28;20117;-79
2022/01/21 04:15:58;;;;;;;10.48;4.80;;;0.90;99.90;;;;;;5025723;28;20048;-79
2022/01/21 04:18:24;;;;;;;10.73;5.07;;;1.00;99.90;;;;;;5026580;28;20038;-79
2022/01/21 04:20:51;;;;;;;8.48;4.95;;;0.90;99.90;;;;;;5028465;28;20513;-79
2022/01/21 04:23:19;;;;;;;10.90;4.93;;;0.90;99.90;;;;;;5028325;28;20029;-79
2022/01/21 04:25:45;;;;;;;10.90;4.70;;;0.90;99.90;;;;;;5028872;28;20021;-79
2022/01/21 04:28:11;;;;;;;10.55;4.53;;;0.80;99.90;;;;;;5030978;28;20037;-79
2022/01/21 04:30:37;;;;;;;8.80;4.47;;;0.90;99.90;;;;;;5026916;28;20526;-79
2022/01/21 04:33:04;;;;;;;8.55;4.57;;;1.10;99.90;;;;;;5026260;28;20053;-79
2022/01/21 04:35:30;;;;;;;11.80;4.45;;;1.00;99.90;;;;;;5028512;28;20026;-79
2022/01/21 04:38:00;;;;;;;7.15;4.10;;;1.10;99.90;;;;;;5024892;28;20795;-79
2022/01/21 04:40:32;;;;;;;6.45;4.07;;;1.20;99.90;;;;;;5028715;28;20025;-79
2022/01/21 04:48:29;;;;;;;10.75;4.25;;;1.20;99.90;;;;;;5024072;28;20044;-79
2022/01/21 04:50:58;;;;;;;8.38;4.32;;;1.30;99.90;;;;;;5027385;28;20100;-79
2022/01/21 04:53:26;;;;;;;8.32;4.28;;;1.30;99.90;;;;;;5026733;28;20026;-79
2022/01/21 04:55:52;;;;;;;8.13;4.57;;;1.30;99.90;;;;;;5028624;28;20444;-79
2022/01/21 04:58:19;;;;;;;14.80;5.10;;;1.20;99.90;;;;;;5016540;28;20057;-79
2022/01/21 05:00:45;;;;;;;13.80;4.65;;;1.30;99.90;;;;;;5026213;28;20036;-79
2022/01/21 05:03:11;;;;;;;11.38;4.72;;;1.20;99.90;;;;;;5027760;28;20034;-79
2022/01/21 05:05:38;;;;;;;7.82;4.40;;;1.30;99.90;;;;;;5028051;28;20029;-79
2022/01/21 05:08:08;;;;;;;12.07;4.45;;;1.30;99.90;;;;;;5017092;28;20041;-79
2022/01/21 05:10:35;;;;;;;8.80;5.00;;;1.40;99.90;;;;;;5017574;28;20018;-79
2022/01/21 05:13:01;;;;;;;10.25;4.55;;;1.30;99.90;;;;;;5026864;28;20028;-79
2022/01/21 05:18:31;;;;;;;7.53;4.70;;;1.30;99.90;;;;;;5040174;28;20592;-79
2022/01/21 05:20:57;;;;;;;8.07;4.13;;;1.40;99.90;;;;;;5038266;28;20045;-79
2022/01/21 05:23:23;;;;;;;6.60;3.88;;;1.40;99.90;;;;;;5032290;28;20098;-79
2022/01/21 05:25:50;;;;;;;9.52;5.32;;;1.40;99.90;;;;;;5032698;28;20056;-79
2022/01/21 05:28:16;;;;;;;8.90;4.10;;;1.40;99.90;;;;;;5018309;28;20022;-79
2022/01/21 05:30:42;;;;;;;8.00;3.97;;;1.30;99.90;;;;;;5040683;28;20037;-79
2022/01/21 05:33:07;;;;;;;16.80;4.70;;;1.30;99.90;;;;;;5042622;28;20091;-79
2022/01/21 05:35:34;;;;;;;11.40;4.72;;;1.30;99.90;;;;;;5033430;28;20577;-79
2022/01/21 05:38:00;;;;;;;10.38;4.07;;;1.30;99.90;;;;;;5030909;28;20037;-79
2022/01/21 05:40:25;;;;;;;11.82;5.22;;;1.30;99.90;;;;;;5043026;28;20568;-78
2022/01/21 05:42:51;;;;;;;10.93;4.68;;;1.30;99.90;;;;;;5043829;28;20596;-78
2022/01/21 05:48:01;;;;;;;10.57;4.22;;;1.30;99.90;;;;;;5041687;28;20059;-79
2022/01/21 05:50:27;;;;;;;11.10;3.80;;;1.30;99.90;;;;;;5016165;28;20095;-79
2022/01/21 05:52:55;;;;;;;8.73;4.90;;;1.30;99.90;;;;;;5029452;28;20407;-79
2022/01/21 05:55:20;;;;;;;12.82;4.65;;;1.30;99.90;;;;;;5028249;28;20022;-79
2022/01/21 05:57:46;;;;;;;9.90;4.47;;;1.30;99.90;;;;;;5023865;28;20036;-79
2022/01/21 06:00:13;;;;;;;8.38;4.15;;;1.30;99.90;;;;;;5026492;28;20018;-79
2022/01/21 06:02:39;;;;;;;6.45;3.90;;;1.30;99.90;;;;;;5026278;28;20022;-79
2022/01/21 06:05:06;;;;;;;9.38;4.25;;;1.30;99.90;;;;;;5031424;28;20037;-79
2022/01/21 06:07:32;;;;;;;8.75;4.22;;;1.30;99.90;;;;;;5030044;28;20025;-79
2022/01/21 06:09:58;;;;;;;6.50;4.07;;;1.30;99.90;;;;;;5032416;28;20495;-79
2022/01/21 06:12:24;;;;;;;12.18;4.88;;;1.20;99.90;;;;;;5026672;28;20022;-79
2022/01/21 06:14:50;;;;;;;10.23;3.90;;;1.20;99.90;;;;;;5029069;28;20098;-79
2022/01/21 06:17:15;;;;;;;10.07;3.90;;;1.10;99.90;;;;;;5029649;28;20029;-79
2022/01/21 06:19:42;;;;;;;9.48;3.75;;;1.20;99.90;;;;;;5031326;28;20024;-79
2022/01/21 06:22:08;;;;;;;6.95;3.72;;;1.10;99.90;;;;;;5030194;28;20057;-79
2022/01/21 06:24:33;;;;;;;7.35;3.97;;;1.00;99.90;;;;;;5030495;28;20114;-79
2022/01/21 06:27:02;;;;;;;9.23;4.05;;;1.00;99.90;;;;;;5025111;28;20541;-79
2022/01/21 06:29:27;;;;;;;7.35;4.03;;;1.00;99.90;;;;;;5026991;28;20057;-79
2022/01/21 06:31:53;;;;;;;8.88;3.85;;;1.10;99.90;;;;;;5012473;28;20030;-78
2022/01/21 06:34:19;;;;;;;9.75;5.07;;;1.10;99.90;;;;;;5036816;28;21001;-79
2022/01/21 06:36:46;;;;;;;7.30;3.42;;;1.10;99.90;;;;;;5029712;28;20036;-79
2022/01/21 06:39:12;;;;;;;5.85;3.60;;;1.10;99.90;;;;;;5026046;28;20128;-79
2022/01/21 06:41:40;;;;;;;5.20;3.28;;;1.00;99.90;;;;;;5024574;28;20189;-79
2022/01/21 06:44:06;;;;;;;7.65;3.20;;;1.00;99.90;;;;;;5028555;28;20032;-79
2022/01/21 06:46:32;;;;;;;7.28;3.55;;;0.90;99.90;;;;;;5026476;28;20056;-79
2022/01/21 06:48:58;;;;;;;6.05;3.63;;;0.90;99.90;;;;;;5022642;28;20033;-78
2022/01/21 06:51:23;;;;;;;6.55;4.18;;;0.90;99.90;;;;;;5021200;28;20030;-79
2022/01/21 06:53:49;;;;;;;10.70;4.10;;;0.70;99.90;;;;;;5023470;28;20024;-79
2022/01/21 06:56:15;;;;;;;6.32;3.83;;;0.70;99.90;;;;;;5030258;28;20549;-79
2022/01/21 06:58:40;;;;;;;8.20;3.65;;;0.60;99.90;;;;;;5035382;28;20079;-79
2022/01/21 07:01:06;;;;;;;7.70;3.30;;;0.50;99.90;;;;;;5020854;28;20533;-79
2022/01/21 07:03:32;;;;;;;10.40;3.97;;;0.60;99.90;;;;;;5027408;28;20026;-79
2022/01/21 07:05:59;;;;;;;6.78;4.22;;;0.60;99.90;;;;;;5028297;28;20025;-79
2022/01/21 07:08:26;;;;;;;8.15;3.55;;;0.60;99.90;;;;;;5030031;28;20025;-79
2022/01/21 07:10:52;;;;;;;6.00;3.20;;;0.60;99.90;;;;;;5014201;28;20029;-79
2022/01/21 07:13:17;;;;;;;9.73;3.53;;;0.50;99.90;;;;;;5027774;28;20080;-79
2022/01/21 07:15:43;;;;;;;8.10;2.70;;;0.50;99.90;;;;;;5020121;28;20104;-79
2022/01/21 07:18:09;;;;;;;7.45;3.15;;;0.50;99.90;;;;;;5025556;28;20574;-79
2022/01/21 07:20:34;;;;;;;7.18;4.30;;;0.40;99.90;;;;;;5025181;28;20025;-79
2022/01/21 07:23:00;;;;;;;5.55;2.72;;;0.40;99.90;;;;;;5031582;28;20033;-79
2022/01/21 07:25:27;;;;;;;7.85;3.42;;;0.50;99.90;;;;;;5032222;28;20038;-79
2022/01/21 07:27:53;;;;;;;9.95;3.53;;;0.50;99.90;;;;;;5028773;28;20049;-79
2022/01/21 07:30:19;;;;;;;6.35;3.45;;;0.50;99.90;;;;;;5026994;28;20029;-79
2022/01/21 07:32:45;;;;;;;10.38;3.60;;;0.40;99.90;;;;;;5027776;28;20080;-79
2022/01/21 07:35:11;;;;;;;8.50;3.30;;;0.40;99.90;;;;;;5028216;28;20041;-79
2022/01/21 07:37:38;;;;;;;7.85;3.63;;;0.40;99.90;;;;;;5023791;28;20025;-79
2022/01/21 07:40:06;;;;;;;7.07;3.65;;;0.50;99.90;;;;;;5029388;28;20136;-79
2022/01/21 07:42:32;;;;;;;5.30;3.33;;;0.50;99.90;;;;;;5029057;28;20029;-79
2022/01/21 07:44:58;;;;;;;9.88;4.28;;;0.50;99.90;;;;;;5028884;28;20028;-79
2022/01/21 07:47:24;;;;;;;11.38;4.88;;;0.60;99.90;;;;;;5022611;28;20498;-79
2022/01/21 07:49:50;;;;;;;10.73;5.38;;;0.60;99.90;;;;;;5035943;28;20113;-79
2022/01/21 07:52:16;;;;;;;18.27;8.23;;;0.60;99.90;;;;;;5025635;28;20026;-79
2022/01/21 07:54:42;;;;;;;19.20;8.43;;;0.50;99.90;;;;;;5023208;28;20032;-79
2022/01/21 07:57:08;;;;;;;17.15;8.35;;;0.50;99.90;;;;;;5024782;28;20108;-79
2022/01/21 07:59:34;;;;;;;17.02;8.02;;;0.60;99.90;;;;;;5025971;28;20532;-79
2022/01/21 08:02:00;;;;;;;17.55;7.57;;;0.60;99.90;;;;;;5028202;28;21143;-79
2022/01/21 08:04:26;;;;;;;13.43;6.55;;;1.00;99.90;;;;;;5019295;28;20036;-79
2022/01/21 08:06:51;;;;;;;14.38;6.05;;;2.60;99.90;;;;;;5028513;28;20033;-79
2022/01/21 08:09:23;;;;;;;10.98;5.22;;;2.90;99.90;;;;;;5025196;28;20550;-79
2022/01/21 08:11:53;;;;;;;13.90;5.43;;;2.70;99.90;;;;;;5027181;28;20025;-79
2022/01/21 08:14:19;;;;;;;11.00;5.28;;;2.10;99.90;;;;;;5032894;28;20108;-78
2022/01/21 08:16:45;;;;;;;12.60;5.60;;;1.60;99.90;;;;;;5029012;28;20029;-79
2022/01/21 08:19:13;;;;;;;9.10;5.35;;;1.60;99.90;;;;;;5026299;28;20024;-79
2022/01/21 08:21:39;;;;;;;14.18;5.82;;;1.60;99.90;;;;;;5024348;28;20029;-79
2022/01/21 08:24:06;;;;;;;12.80;5.63;;;2.10;99.90;;;;;;5026184;28;20076;-79
2022/01/21 08:26:32;;;;;;;12.18;5.15;;;2.00;99.90;;;;;;5025925;28;20026;-78
2022/01/21 08:28:58;;;;;;;13.95;5.68;;;1.80;99.90;;;;;;5026766;28;20159;-78
2022/01/21 08:31:24;;;;;;;11.93;5.05;;;1.70;99.90;;;;;;5026204;28;20033;-78
2022/01/21 08:33:50;;;;;;;9.38;5.10;;;1.90;99.90;;;;;;5025357;28;20017;-78
2022/01/21 08:36:19;;;;;;;10.20;4.88;;;1.90;99.90;;;;;;5024548;28;20029;-79
2022/01/21 08:38:45;;;;;;;12.30;5.18;;;2.30;99.90;;;;;;5035692;28;20025;-78
2022/01/21 08:41:10;;;;;;;14.10;5.75;;;2.30;99.90;;;;;;5026363;28;20044;-78
2022/01/21 08:43:37;;;;;;;13.05;5.35;;;2.30;99.90;;;;;;5028192;28;20449;-78
2022/01/21 08:46:03;;;;;;;8.95;3.72;;;3.00;99.90;;;;;;5025126;28;20077;-78
2022/01/21 08:48:29;;;;;;;12.88;4.70;;;3.00;99.90;;;;;;5028307;28;20044;-78
2022/01/21 08:51:00;;;;;;;10.88;4.68;;;4.70;99.90;;;;;;5024614;28;20483;-78
2022/01/21 08:53:59;;;;;;;;;;;4.70;99.90;;;;;;5023752;28;20021;-79
2022/01/21 08:56:18;;;;;;;11.38;4.07;;;3.70;99.90;;;;;;5027850;28;19966;-78
2022/01/21 08:58:46;;;;;;;14.50;4.72;;;2.80;99.90;;;;;;5027509;28;20124;-78
2022/01/21 09:01:14;;;;;;;14.18;5.30;;;4.30;99.90;;;;;;5031996;28;20017;-79
2022/01/21 09:03:40;;;;;;;12.32;5.15;;;6.00;99.90;;;;;;5033861;28;20040;-80
2022/01/21 09:06:07;;;;;;;13.30;6.13;;;6.50;99.90;;;;;;5029666;28;20040;-80
2022/01/21 09:08:34;;;;;;;11.82;4.70;;;5.40;99.90;;;;;;5041966;28;20032;-80
2022/01/21 09:11:03;;;;;;;13.13;4.78;;;4.90;99.90;;;;;;5023585;28;20026;-80
2022/01/21 09:13:31;;;;;;;14.23;4.38;;;4.40;99.90;;;;;;5024988;28;20034;-80
2022/01/21 09:16:00;;;;;;;10.20;3.75;;;3.70;99.90;;;;;;5030990;28;20258;-80
2022/01/21 09:18:45;;;;;;;10.82;3.63;;;3.90;99.90;;;;;;5033760;28;20037;-80
2022/01/21 09:21:14;;;;;;;8.13;3.40;;;5.00;99.90;;;;;;5028954;28;20032;-80
2022/01/21 09:23:41;;;;;;;6.65;3.40;;;6.50;99.90;;;;;;5030120;28;20076;-80
2022/01/21 09:26:08;;;;;;;6.00;2.63;;;7.70;99.90;;;;;;5017040;28;20025;-79
2022/01/21 09:28:34;;;;;;;5.97;2.72;;;7.40;99.90;;;;;;5030159;28;20167;-79
2022/01/21 09:31:00;;;;;;;5.63;2.75;;;7.10;99.90;;;;;;5027810;28;20033;-79
2022/01/21 09:33:25;;;;;;;10.85;3.03;;;7.30;99.90;;;;;;5029249;28;20044;-79
2022/01/21 09:35:51;;;;;;;7.90;3.03;;;9.20;99.60;;;;;;5028544;28;20529;-79
2022/01/21 09:38:17;;;;;;;9.05;2.95;;;7.30;99.90;;;;;;5029493;28;20033;-80
2022/01/21 09:40:50;;;;;;;9.73;3.47;;;5.60;99.90;;;;;;5031467;28;20513;-80
2022/01/21 09:43:17;;;;;;;8.98;3.42;;;4.30;99.90;;;;;;5029623;28;20510;-79
2022/01/21 09:45:47;;;;;;;11.55;4.38;;;4.30;99.90;;;;;;5027740;28;20060;-79
2022/01/21 09:48:20;;;;;;;7.15;3.63;;;3.90;99.90;;;;;;5023591;28;20498;-79
2022/01/21 09:50:48;;;;;;;11.75;2.88;;;3.90;99.90;;;;;;5026158;28;20022;-79
2022/01/21 09:53:15;;;;;;;6.40;2.50;;;4.00;99.90;;;;;;5027507;28;20052;-79
2022/01/21 09:55:41;;;;;;;5.78;2.47;;;4.20;99.90;;;;;;5032796;28;20021;-79
2022/01/21 09:58:08;;;;;;;6.03;2.92;;;4.10;99.90;;;;;;5028123;28;20091;-79
2022/01/21 10:00:34;;;;;;;5.32;1.98;;;4.10;99.90;;;;;;5027765;28;20074;-79
2022/01/21 10:03:03;;;;;;;5.20;2.50;;;4.20;99.90;;;;;;5032834;28;20044;-80
2022/01/21 10:05:30;;;;;;;3.50;2.15;;;4.30;99.90;;;;;;5026791;28;20026;-80
2022/01/21 10:07:59;;;;;;;5.97;2.70;;;4.30;99.90;;;;;;5028679;28;20062;-80
2022/01/21 10:10:25;;;;;;;6.53;2.30;;;4.30;99.90;;;;;;5029714;28;20053;-80
2022/01/21 10:13:01;;;;;;;8.05;2.40;;;4.30;99.90;;;;;;5027491;28;20025;-80
2022/01/21 10:15:27;;;;;;;6.82;2.63;;;4.20;99.90;;;;;;5022710;28;20131;-80
2022/01/21 10:18:28;;;;;;;7.20;2.67;;;4.20;99.90;;;;;;5029311;28;20056;-80
2022/01/21 10:21:13;;;;;;;3.83;2.13;;;4.20;99.90;;;;;;5056471;28;20033;-79
2022/01/21 10:23:42;;;;;;;7.15;2.25;;;4.20;99.90;;;;;;5060490;28;20021;-79
2022/01/21 10:26:14;;;;;;;8.27;2.15;;;4.10;99.90;;;;;;5064784;28;20052;-79
2022/01/21 10:28:44;;;;;;;3.17;1.75;;;4.20;99.90;;;;;;5067009;28;20041;-80
2022/01/21 10:31:16;;;;;;;4.15;2.22;;;4.20;99.90;;;;;;5060231;28;20075;-79
2022/01/21 10:33:48;;;;;;;;;;;4.40;99.90;;;;;;5062821;28;20035;-79
2022/01/21 10:36:35;;;;;;;3.75;1.95;;;4.40;99.90;;;;;;5064757;28;19995;-79
2022/01/21 10:39:10;;;;;;;4.18;2.00;;;4.40;99.90;;;;;;5069093;28;20044;-80
2022/01/21 10:41:40;;;;;;;7.93;1.98;;;4.40;99.90;;;;;;5048715;28;20516;-79
2022/01/21 10:44:20;;;;;;;2.15;1.95;;;4.40;99.90;;;;;;5042195;28;20563;-79
2022/01/21 10:47:03;;;;;;;4.30;1.80;;;4.20;99.90;;;;;;5065860;28;20070;-79
2022/01/21 10:49:28;;;;;;;2.30;1.73;;;4.30;99.90;;;;;;5060209;28;20072;-80
2022/01/21 10:51:55;;;;;;;2.97;2.00;;;4.40;99.90;;;;;;5042756;28;20516;-80
2022/01/21 10:54:26;;;;;;;3.28;1.90;;;4.40;99.90;;;;;;5033701;28;20042;-80
2022/01/21 10:57:07;;;;;;;4.80;1.93;;;4.30;99.90;;;;;;5026415;28;20045;-79
2022/01/21 10:59:50;;;;;;;4.88;1.67;;;4.30;99.90;;;;;;5030028;28;20040;-79
2022/01/21 11:02:46;;;;;;;2.60;1.83;;;4.40;99.90;;;;;;5025777;28;20557;-79
2022/01/21 11:05:23;;;;;;;5.53;2.30;;;4.40;99.90;;;;;;5031604;28;20495;-79
2022/01/21 11:07:55;;;;;;;3.53;1.70;;;4.40;99.90;;;;;;5026986;28;20067;-79
2022/01/21 11:10:38;;;;;;;3.47;2.03;;;4.30;99.90;;;;;;5028097;28;20104;-79
2022/01/21 11:13:15;;;;;;;5.00;2.38;;;4.40;99.90;;;;;;5025105;28;20076;-79
2022/01/21 11:15:43;;;;;;;8.18;4.22;;;4.70;99.90;;;;;;5023412;28;20028;-79
2022/01/21 11:18:13;;;;;;;11.57;3.35;;;4.70;99.90;;;;;;5030176;28;20044;-79
2022/01/21 11:20:41;;;;;;;6.05;2.90;;;4.60;99.90;;;;;;5026109;28;20061;-79
2022/01/21 11:23:09;;;;;;;6.65;3.13;;;4.70;99.90;;;;;;5013203;28;20112;-79
2022/01/21 11:25:50;;;;;;;8.20;3.35;;;5.00;99.90;;;;;;5030051;28;20218;-79
2022/01/21 11:28:18;;;;;;;5.55;3.20;;;5.20;99.90;;;;;;5029179;28;20025;-80
2022/01/21 11:30:44;;;;;;;5.57;3.28;;;5.20;99.90;;;;;;5028143;28;20029;-79
2022/01/21 11:33:10;;;;;;;7.72;3.10;;;5.10;99.90;;;;;;5024599;28;20498;-79
2022/01/21 11:35:37;;;;;;;7.55;2.90;;;5.10;99.90;;;;;;5027175;28;20052;-79
2022/01/21 11:38:07;;;;;;;7.53;3.85;;;4.80;99.90;;;;;;5025779;28;20565;-79
2022/01/21 11:40:34;;;;;;;7.85;3.75;;;4.90;99.90;;;;;;5028830;28;20022;-79
2022/01/21 11:43:02;;;;;;;7.93;3.55;;;5.00;99.90;;;;;;5026915;28;20030;-79
2022/01/21 11:50:50;;;;;;;5.13;2.33;;;5.40;99.90;;;;;;5013295;28;20056;-79
2022/01/21 11:53:35;;;;;;;6.15;2.38;;;5.40;99.90;;;;;;4991721;28;20025;-79
2022/01/21 11:56:06;;;;;;;5.55;2.50;;;5.50;99.90;;;;;;5018213;28;20163;-78
2022/01/21 11:58:32;;;;;;;6.75;2.95;;;5.70;99.90;;;;;;5022969;28;20021;-79
2022/01/21 12:00:58;;;;;;;6.50;3.22;;;6.00;99.90;;;;;;5015200;28;20494;-79
2022/01/21 12:03:43;;;;;;;5.88;3.10;;;5.90;99.90;;;;;;5015383;28;20052;-79
2022/01/21 12:06:32;;;;;;;6.22;2.30;;;5.40;99.90;;;;;;5013249;28;20049;-79
2022/01/21 12:09:00;;;;;;;6.03;2.88;;;5.10;99.90;;;;;;5009141;28;20037;-79
2022/01/21 12:11:37;;;;;;;2.83;2.22;;;5.00;99.90;;;;;;4993507;28;20045;-79
2022/01/21 12:14:35;;;;;;;3.08;1.95;;;5.00;99.90;;;;;;5006394;28;20128;-79
2022/01/21 12:17:14;;;;;;;3.83;2.75;;;5.20;99.90;;;;;;4999350;28;20041;-79
2022/01/21 12:19:41;;;;;;;8.68;3.42;;;5.60;99.90;;;;;;5007609;28;20026;-79
2022/01/21 12:22:12;;;;;;;7.65;2.85;;;5.50;99.90;;;;;;4995118;28;20097;-79
2022/01/21 12:24:47;;;;;;;7.53;3.28;;;5.30;99.90;;;;;;5019428;28;20045;-79
2022/01/21 12:27:14;;;;;;;8.55;3.03;;;5.20;99.90;;;;;;5019577;28;20076;-79
2022/01/21 12:29:40;;;;;;;8.32;3.88;;;5.10;99.90;;;;;;5027149;28;20066;-79
2022/01/21 12:32:31;;;;;;;7.05;3.33;;;5.00;99.90;;;;;;5027279;28;20038;-79
2022/01/21 12:34:57;;;;;;;7.78;3.75;;;5.10;99.90;;;;;;5027440;28;20036;-79
2022/01/21 12:37:26;;;;;;;8.27;3.20;;;5.20;99.90;;;;;;5033572;28;20490;-79
2022/01/21 12:39:52;;;;;;;7.70;3.30;;;5.10;99.90;;;;;;5028945;28;20053;-79
2022/01/21 12:42:21;;;;;;;9.65;3.35;;;4.80;99.90;;;;;;5032262;28;20025;-79
2022/01/21 12:44:52;;;;;;;12.95;3.58;;;4.70;99.90;;;;;;5029762;28;20063;-79
2022/01/21 12:47:39;;;;;;;8.75;3.60;;;4.60;99.90;;;;;;5035017;28;20041;-79
2022/01/21 12:50:40;;;;;;;6.07;3.15;;;4.50;99.90;;;;;;5029550;28;20033;-79
2022/01/21 12:53:24;;;;;;;4.32;2.75;;;4.50;99.90;;;;;;5029073;28;20026;-79
2022/01/21 12:55:59;;;;;;;5.47;2.78;;;4.40;99.90;;;;;;5030059;28;20021;-79
2022/01/21 12:58:30;;;;;;;8.23;2.72;;;4.60;99.90;;;;;;5029095;28;20723;-79
2022/01/21 13:00:56;;;;;;;;;;;4.70;99.90;;;;;;5031114;28;20033;-79
2022/01/21 13:03:46;;;;;;;6.00;2.78;;;4.70;99.90;;;;;;5029832;28;19916;-79
2022/01/21 13:06:31;;;;;;;5.78;2.67;;;4.80;99.90;;;;;;5029615;28;20057;-79
2022/01/21 13:09:06;;;;;;;8.15;3.95;;;4.90;99.90;;;;;;5034048;28;20025;-79
2022/01/21 13:11:33;;;;;;;10.25;3.10;;;5.00;99.90;;;;;;5028907;28;20028;-79
2022/01/21 13:17:15;;;;;;;10.23;2.85;;;4.80;99.90;;;;;;5035978;28;20117;-79
2022/01/21 13:19:51;;;;;;;5.22;2.95;;;4.70;99.90;;;;;;5028436;28;20037;-79
2022/01/21 13:22:18;;;;;;;8.05;3.17;;;4.60;99.90;;;;;;5031097;28;20506;-79
2022/01/21 13:25:13;;;;;;;9.55;3.20;;;4.60;99.90;;;;;;5027236;28;20116;-79
2022/01/21 13:27:53;;;;;;;7.68;3.13;;;4.50;99.90;;;;;;5031681;28;20026;-79
2022/01/21 13:30:25;;;;;;;6.53;3.08;;;4.50;99.90;;;;;;5027950;28;20033;-79
2022/01/21 13:33:01;;;;;;;9.38;2.92;;;4.60;99.90;;;;;;5031188;28;20024;-79
2022/01/21 13:35:28;;;;;;;7.13;2.85;;;4.60;99.90;;;;;;5029432;28;20033;-79
2022/01/21 13:38:12;;;;;;;7.05;3.08;;;4.60;99.90;;;;;;5029331;28;20032;-78
2022/01/21 13:40:40;;;;;;;7.65;3.50;;;4.60;99.90;;;;;;5028315;28;20025;-79
2022/01/21 13:43:07;;;;;;;7.55;3.47;;;4.70;99.90;;;;;;5028036;28;20173;-79
2022/01/21 13:45:32;;;;;;;7.28;3.20;;;4.70;99.90;;;;;;5028476;28;20128;-79
2022/01/21 13:48:06;;;;;;;7.22;2.53;;;4.80;99.90;;;;;;5021371;28;20160;-79
2022/01/21 13:50:32;;;;;;;6.10;2.63;;;4.80;99.90;;;;;;5027994;28;20025;-79
2022/01/21 13:53:01;;;;;;;8.10;2.88;;;4.70;99.90;;;;;;5028975;28;20033;-79
2022/01/21 13:55:41;;;;;;;5.50;2.33;;;4.70;99.90;;;;;;5028772;28;20087;-79
2022/01/21 13:58:12;;;;;;;6.13;3.15;;;4.70;99.90;;;;;;5029824;28;20116;-79
2022/01/21 14:00:41;;;;;;;5.50;3.00;;;4.80;99.90;;;;;;5026432;28;20022;-79
2022/01/21 14:03:22;;;;;;;7.70;3.03;;;4.90;99.90;;;;;;5027119;28;20124;-79